GLO2004 SBGL-SBEG
Flight info
| Callsign | GLO2004 |
|---|---|
| Flight time | 3h 48m |
| Altitude | 36000 |
| Route | EDNAM UM409 ESMAR DCT IRUMO |
| Aircraft | B738/M-SDFGIKLORWXY/LB1 |
Departure
| Time | 2026-04-28 12:54 |
|---|---|
| Airport | Rio Galeão – Tom Jobim International Airport (SBGL) |
Arrival
| Time | 2026-04-28 16:42 |
|---|---|
| Airport | Eduardo Gomes International Airport (SBEG) |
| Time | Latitude | Longitude | Altitude | Speed | Heading |
|---|---|---|---|---|---|
| 2026-04-28 12:40 | -22.81205 | -43.25248 | 21 ft | 0 kts | 47° |
| 2026-04-28 12:47 | -22.81212 | -43.25257 | 22 ft | 4 kts | 44° |
| 2026-04-28 12:48 | -22.81233 | -43.25274 | 21 ft | 4 kts | 26° |
| 2026-04-28 12:48 | -22.81257 | -43.25281 | 21 ft | 4 kts | 346° |
| 2026-04-28 12:48 | -22.81271 | -43.25272 | 21 ft | 1 kts | 311° |
| 2026-04-28 12:48 | -22.81273 | -43.25270 | 21 ft | 0 kts | 311° |
| 2026-04-28 12:50 | -22.81272 | -43.25272 | 21 ft | 2 kts | 311° |
| 2026-04-28 12:50 | -22.81249 | -43.25298 | 24 ft | 8 kts | 315° |
| 2026-04-28 12:50 | -22.81188 | -43.25349 | 21 ft | 14 kts | 330° |
| 2026-04-28 12:51 | -22.81078 | -43.25384 | 22 ft | 19 kts | 354° |
| 2026-04-28 12:51 | -22.80951 | -43.25422 | 22 ft | 21 kts | 304° |
| 2026-04-28 12:51 | -22.80887 | -43.25564 | 32 ft | 23 kts | 296° |
| 2026-04-28 12:51 | -22.80782 | -43.25682 | 27 ft | 22 kts | 3° |
| 2026-04-28 12:52 | -22.80653 | -43.25597 | 27 ft | 21 kts | 36° |
| 2026-04-28 12:52 | -22.80517 | -43.25544 | 30 ft | 22 kts | 338° |
| 2026-04-28 12:52 | -22.80379 | -43.25610 | 27 ft | 23 kts | 15° |
| 2026-04-28 12:52 | -22.80252 | -43.25514 | 24 ft | 22 kts | 39° |
| 2026-04-28 12:53 | -22.80162 | -43.25404 | 25 ft | 19 kts | 70° |
| 2026-04-28 12:53 | -22.80089 | -43.25128 | 27 ft | 72 kts | 74° |
| 2026-04-28 12:53 | -22.79893 | -43.24377 | 31 ft | 136 kts | 74° |
| 2026-04-28 12:53 | -22.79695 | -43.23623 | 64 ft | 169 kts | 75° |
| 2026-04-28 12:54 | -22.79261 | -43.21903 | 950 ft | 179 kts | 77° |
| 2026-04-28 12:54 | -22.78982 | -43.20600 | 1877 ft | 175 kts | 77° |
| 2026-04-28 12:54 | -22.78686 | -43.19236 | 2350 ft | 201 kts | 77° |
| 2026-04-28 12:54 | -22.78345 | -43.17655 | 2584 ft | 229 kts | 77° |
| 2026-04-28 12:55 | -22.77964 | -43.15878 | 2805 ft | 255 kts | 77° |
| 2026-04-28 12:55 | -22.77556 | -43.13965 | 3433 ft | 265 kts | 77° |
| 2026-04-28 12:55 | -22.77143 | -43.12023 | 4345 ft | 265 kts | 76° |
| 2026-04-28 12:55 | -22.76725 | -43.10051 | 5136 ft | 272 kts | 76° |
| 2026-04-28 12:56 | -22.76299 | -43.08040 | 5946 ft | 275 kts | 76° |
| 2026-04-28 12:56 | -22.75872 | -43.06025 | 6710 ft | 280 kts | 75° |
| 2026-04-28 12:56 | -22.75434 | -43.03959 | 7457 ft | 284 kts | 76° |
| 2026-04-28 12:56 | -22.74912 | -43.01887 | 8209 ft | 287 kts | 63° |
| 2026-04-28 12:57 | -22.73684 | -43.00202 | 8948 ft | 287 kts | 35° |
| 2026-04-28 12:57 | -22.71872 | -42.99327 | 9720 ft | 289 kts | 8° |
| 2026-04-28 12:57 | -22.69872 | -42.99433 | 10390 ft | 294 kts | 343° |
| 2026-04-28 12:57 | -22.67948 | -43.00377 | 10618 ft | 316 kts | 330° |
| 2026-04-28 12:58 | -22.65945 | -43.01552 | 10818 ft | 337 kts | 342° |
| 2026-04-28 12:58 | -22.63674 | -43.02194 | 11341 ft | 344 kts | 343° |
| 2026-04-28 12:58 | -22.61385 | -43.03002 | 12033 ft | 347 kts | 340° |
| 2026-04-28 12:58 | -22.59110 | -43.03903 | 12733 ft | 350 kts | 339° |
| 2026-04-28 12:59 | -22.56821 | -43.04824 | 13396 ft | 353 kts | 339° |
| 2026-04-28 12:59 | -22.55260 | -43.05447 | 13849 ft | 355 kts | 339° |
| 2026-04-28 12:59 | -22.52169 | -43.06669 | 14636 ft | 359 kts | 339° |
| 2026-04-28 12:59 | -22.49811 | -43.07596 | 15262 ft | 361 kts | 339° |
| 2026-04-28 13:00 | -22.48247 | -43.08210 | 15676 ft | 361 kts | 339° |
| 2026-04-28 13:00 | -22.45882 | -43.09139 | 16326 ft | 362 kts | 339° |
| 2026-04-28 13:00 | -22.43508 | -43.10071 | 16940 ft | 364 kts | 339° |
| 2026-04-28 13:00 | -22.41114 | -43.11011 | 17494 ft | 367 kts | 338° |
| 2026-04-28 13:01 | -22.38708 | -43.11955 | 18066 ft | 369 kts | 338° |
| 2026-04-28 13:01 | -22.36289 | -43.12904 | 18612 ft | 371 kts | 338° |
| 2026-04-28 13:01 | -22.33853 | -43.13859 | 19056 ft | 375 kts | 338° |
| 2026-04-28 13:01 | -22.31391 | -43.14823 | 19500 ft | 378 kts | 338° |
| 2026-04-28 13:02 | -22.28914 | -43.15794 | 19953 ft | 380 kts | 338° |
| 2026-04-28 13:02 | -22.26413 | -43.16774 | 20410 ft | 383 kts | 338° |
| 2026-04-28 13:02 | -22.23895 | -43.17760 | 20856 ft | 385 kts | 338° |
| 2026-04-28 13:02 | -22.21371 | -43.18748 | 21286 ft | 388 kts | 338° |
| 2026-04-28 13:03 | -22.18825 | -43.19744 | 21730 ft | 390 kts | 338° |
| 2026-04-28 13:03 | -22.16264 | -43.20747 | 22167 ft | 393 kts | 337° |
| 2026-04-28 13:03 | -22.13775 | -43.21977 | 22560 ft | 395 kts | 329° |
| 2026-04-28 13:03 | -22.11387 | -43.23462 | 22978 ft | 396 kts | 327° |
| 2026-04-28 13:04 | -22.09047 | -43.24986 | 23400 ft | 399 kts | 327° |
| 2026-04-28 13:04 | -22.06666 | -43.26540 | 23786 ft | 401 kts | 327° |
| 2026-04-28 13:04 | -22.04259 | -43.28093 | 24113 ft | 403 kts | 328° |
| 2026-04-28 13:04 | -22.01839 | -43.29633 | 24486 ft | 405 kts | 328° |
| 2026-04-28 13:05 | -21.99400 | -43.31171 | 24847 ft | 406 kts | 328° |
| 2026-04-28 13:05 | -21.96951 | -43.32707 | 25198 ft | 408 kts | 328° |
| 2026-04-28 13:05 | -21.94497 | -43.34242 | 25533 ft | 409 kts | 328° |
| 2026-04-28 13:05 | -21.92023 | -43.35788 | 25883 ft | 411 kts | 328° |
| 2026-04-28 13:06 | -21.89538 | -43.37340 | 26210 ft | 413 kts | 328° |
| 2026-04-28 13:06 | -21.87048 | -43.38896 | 26535 ft | 415 kts | 328° |
| 2026-04-28 13:06 | -21.84548 | -43.40458 | 26852 ft | 417 kts | 328° |
| 2026-04-28 13:06 | -21.82036 | -43.42026 | 27176 ft | 418 kts | 328° |
| 2026-04-28 13:07 | -21.79516 | -43.43599 | 27507 ft | 419 kts | 328° |
| 2026-04-28 13:07 | -21.76985 | -43.45177 | 27818 ft | 421 kts | 328° |
| 2026-04-28 13:07 | -21.74447 | -43.46759 | 28104 ft | 423 kts | 328° |
| 2026-04-28 13:07 | -21.71929 | -43.48328 | 28405 ft | 424 kts | 328° |
| 2026-04-28 13:08 | -21.69369 | -43.49923 | 28696 ft | 426 kts | 328° |
| 2026-04-28 13:08 | -21.66796 | -43.51526 | 28979 ft | 428 kts | 328° |
| 2026-04-28 13:08 | -21.64223 | -43.53129 | 29252 ft | 429 kts | 328° |
| 2026-04-28 13:08 | -21.61631 | -43.54742 | 29501 ft | 431 kts | 328° |
| 2026-04-28 13:09 | -21.59029 | -43.56361 | 29777 ft | 433 kts | 328° |
| 2026-04-28 13:09 | -21.56419 | -43.57984 | 30059 ft | 434 kts | 328° |
| 2026-04-28 13:09 | -21.53802 | -43.59609 | 30331 ft | 435 kts | 328° |
| 2026-04-28 13:09 | -21.51174 | -43.61237 | 30564 ft | 436 kts | 328° |
| 2026-04-28 13:10 | -21.48539 | -43.62871 | 30781 ft | 438 kts | 328° |
| 2026-04-28 13:10 | -21.46040 | -43.64422 | 30994 ft | 439 kts | 328° |
| 2026-04-28 13:10 | -21.43418 | -43.66047 | 31251 ft | 440 kts | 328° |
| 2026-04-28 13:10 | -21.40765 | -43.67692 | 31558 ft | 439 kts | 328° |
| 2026-04-28 13:11 | -21.38123 | -43.69329 | 31882 ft | 438 kts | 328° |
| 2026-04-28 13:11 | -21.35476 | -43.70968 | 32212 ft | 437 kts | 328° |
| 2026-04-28 13:11 | -21.32841 | -43.72599 | 32505 ft | 437 kts | 328° |
| 2026-04-28 13:11 | -21.30206 | -43.74230 | 32755 ft | 438 kts | 328° |
| 2026-04-28 13:12 | -21.27564 | -43.75864 | 33045 ft | 437 kts | 328° |
| 2026-04-28 13:12 | -21.24979 | -43.77483 | 33342 ft | 436 kts | 327° |
| 2026-04-28 13:12 | -21.22381 | -43.79166 | 33634 ft | 436 kts | 327° |
| 2026-04-28 13:12 | -21.19789 | -43.80871 | 33910 ft | 436 kts | 326° |
| 2026-04-28 13:13 | -21.17205 | -43.82577 | 34180 ft | 436 kts | 326° |
| 2026-04-28 13:13 | -21.14621 | -43.84279 | 34404 ft | 435 kts | 326° |
| 2026-04-28 13:13 | -21.12039 | -43.85974 | 34648 ft | 434 kts | 326° |
| 2026-04-28 13:13 | -21.09461 | -43.87661 | 34887 ft | 434 kts | 326° |
| 2026-04-28 13:14 | -21.06883 | -43.89345 | 35110 ft | 434 kts | 326° |
| 2026-04-28 13:14 | -21.04303 | -43.91029 | 35324 ft | 433 kts | 326° |
| 2026-04-28 13:14 | -21.01735 | -43.92703 | 35565 ft | 432 kts | 326° |
| 2026-04-28 13:14 | -20.99168 | -43.94376 | 35789 ft | 431 kts | 326° |
| 2026-04-28 13:15 | -20.96605 | -43.96045 | 35982 ft | 431 kts | 326° |
| 2026-04-28 13:15 | -20.94039 | -43.97716 | 36187 ft | 431 kts | 326° |
| 2026-04-28 13:15 | -20.91473 | -43.99387 | 36420 ft | 431 kts | 326° |
| 2026-04-28 13:15 | -20.88917 | -44.01050 | 36653 ft | 430 kts | 326° |
| 2026-04-28 13:16 | -20.86401 | -44.02687 | 36859 ft | 429 kts | 326° |
| 2026-04-28 13:16 | -20.83844 | -44.04350 | 37070 ft | 429 kts | 326° |
| 2026-04-28 13:16 | -20.81293 | -44.06009 | 37262 ft | 429 kts | 326° |
| 2026-04-28 13:16 | -20.78745 | -44.07665 | 37434 ft | 429 kts | 326° |
| 2026-04-28 13:17 | -20.76192 | -44.09321 | 37621 ft | 429 kts | 326° |
| 2026-04-28 13:17 | -20.73637 | -44.10966 | 37835 ft | 428 kts | 326° |
| 2026-04-28 13:17 | -20.71087 | -44.12608 | 38024 ft | 427 kts | 326° |
| 2026-04-28 13:17 | -20.68551 | -44.14261 | 38132 ft | 428 kts | 326° |
| 2026-04-28 13:18 | -20.66006 | -44.15923 | 38127 ft | 429 kts | 326° |
| 2026-04-28 13:18 | -20.60900 | -44.19234 | 38126 ft | 429 kts | 326° |
| 2026-04-28 13:19 | -20.55785 | -44.22501 | 38144 ft | 428 kts | 327° |
| 2026-04-28 13:19 | -20.50672 | -44.25768 | 38139 ft | 428 kts | 327° |
| 2026-04-28 13:20 | -20.45569 | -44.29031 | 38134 ft | 427 kts | 327° |
| 2026-04-28 13:20 | -20.40510 | -44.32280 | 38125 ft | 427 kts | 326° |
| 2026-04-28 13:21 | -20.35424 | -44.35572 | 38132 ft | 427 kts | 326° |
| 2026-04-28 13:21 | -20.30342 | -44.38861 | 38125 ft | 427 kts | 326° |
| 2026-04-28 13:22 | -20.25252 | -44.42148 | 38128 ft | 428 kts | 326° |
| 2026-04-28 13:22 | -20.20159 | -44.45434 | 38126 ft | 428 kts | 326° |
| 2026-04-28 13:23 | -20.15061 | -44.48722 | 38122 ft | 429 kts | 326° |
| 2026-04-28 13:23 | -20.09945 | -44.52006 | 38121 ft | 430 kts | 327° |
| 2026-04-28 13:24 | -20.04815 | -44.55280 | 38117 ft | 431 kts | 327° |
| 2026-04-28 13:24 | -19.99702 | -44.58543 | 38120 ft | 431 kts | 327° |
| 2026-04-28 13:25 | -19.94558 | -44.61825 | 38119 ft | 432 kts | 327° |
| 2026-04-28 13:25 | -19.89397 | -44.65116 | 38117 ft | 433 kts | 327° |
| 2026-04-28 13:26 | -19.84230 | -44.68410 | 38113 ft | 433 kts | 327° |
| 2026-04-28 13:26 | -19.79051 | -44.71708 | 38116 ft | 434 kts | 327° |
| 2026-04-28 13:27 | -19.73877 | -44.75001 | 38119 ft | 434 kts | 327° |
| 2026-04-28 13:27 | -19.68690 | -44.78298 | 38105 ft | 434 kts | 327° |
| 2026-04-28 13:28 | -19.63506 | -44.81593 | 38113 ft | 434 kts | 327° |
| 2026-04-28 13:28 | -19.58317 | -44.84888 | 38108 ft | 434 kts | 327° |
| 2026-04-28 13:29 | -19.53143 | -44.88171 | 38105 ft | 434 kts | 327° |
| 2026-04-28 13:29 | -19.47950 | -44.91465 | 38104 ft | 434 kts | 327° |
| 2026-04-28 13:30 | -19.42791 | -44.94738 | 38109 ft | 434 kts | 327° |
| 2026-04-28 13:30 | -19.37601 | -44.98029 | 38110 ft | 434 kts | 327° |
| 2026-04-28 13:31 | -19.29823 | -45.02957 | 38098 ft | 434 kts | 327° |
| 2026-04-28 13:31 | -19.24638 | -45.06239 | 38102 ft | 434 kts | 327° |
| 2026-04-28 13:32 | -19.19480 | -45.09501 | 38103 ft | 435 kts | 327° |
| 2026-04-28 13:32 | -19.14285 | -45.12784 | 38100 ft | 435 kts | 327° |
| 2026-04-28 13:33 | -19.09076 | -45.16075 | 38101 ft | 436 kts | 327° |
| 2026-04-28 13:33 | -19.03865 | -45.19363 | 38099 ft | 436 kts | 327° |
| 2026-04-28 13:34 | -18.98638 | -45.22659 | 38101 ft | 437 kts | 327° |
| 2026-04-28 13:34 | -18.93412 | -45.25952 | 38102 ft | 438 kts | 327° |
| 2026-04-28 13:35 | -18.88212 | -45.29227 | 38100 ft | 438 kts | 327° |
| 2026-04-28 13:35 | -18.82966 | -45.32528 | 38099 ft | 439 kts | 327° |
| 2026-04-28 13:36 | -18.77713 | -45.35830 | 38096 ft | 439 kts | 327° |
| 2026-04-28 13:36 | -18.72455 | -45.39134 | 38095 ft | 440 kts | 328° |
| 2026-04-28 13:37 | -18.67186 | -45.42442 | 38106 ft | 441 kts | 328° |
| 2026-04-28 13:37 | -18.61909 | -45.45753 | 38097 ft | 441 kts | 328° |
| 2026-04-28 13:38 | -18.56666 | -45.49040 | 38094 ft | 441 kts | 328° |
| 2026-04-28 13:38 | -18.51387 | -45.52349 | 38097 ft | 441 kts | 328° |
| 2026-04-28 13:39 | -18.46112 | -45.55652 | 38102 ft | 441 kts | 328° |
| 2026-04-28 13:39 | -18.40963 | -45.59175 | 38103 ft | 440 kts | 322° |
| 2026-04-28 13:40 | -18.36057 | -45.63043 | 38102 ft | 440 kts | 321° |
| 2026-04-28 13:40 | -18.31170 | -45.66930 | 38100 ft | 440 kts | 322° |
| 2026-04-28 13:41 | -18.26252 | -45.70793 | 38101 ft | 441 kts | 322° |
| 2026-04-28 13:41 | -18.21324 | -45.74637 | 38096 ft | 441 kts | 322° |
| 2026-04-28 13:42 | -18.16428 | -45.78448 | 38095 ft | 441 kts | 322° |
| 2026-04-28 13:42 | -18.11498 | -45.82285 | 38101 ft | 441 kts | 322° |
| 2026-04-28 13:43 | -18.06572 | -45.86115 | 38095 ft | 441 kts | 322° |
| 2026-04-28 13:43 | -18.01629 | -45.89957 | 38088 ft | 441 kts | 322° |
| 2026-04-28 13:44 | -17.96829 | -45.93685 | 38093 ft | 441 kts | 322° |
| 2026-04-28 13:44 | -17.91900 | -45.97512 | 38083 ft | 441 kts | 322° |
| 2026-04-28 13:45 | -17.86960 | -46.01344 | 38089 ft | 441 kts | 322° |
| 2026-04-28 13:45 | -17.82056 | -46.05145 | 38083 ft | 441 kts | 322° |
| 2026-04-28 13:46 | -17.77114 | -46.08977 | 38086 ft | 441 kts | 322° |
| 2026-04-28 13:46 | -17.72175 | -46.12806 | 38080 ft | 441 kts | 322° |
| 2026-04-28 13:47 | -17.68061 | -46.15993 | 38079 ft | 442 kts | 322° |
| 2026-04-28 13:47 | -17.63125 | -46.19815 | 38077 ft | 441 kts | 322° |
| 2026-04-28 13:48 | -17.58173 | -46.23646 | 38074 ft | 442 kts | 322° |
| 2026-04-28 13:48 | -17.53229 | -46.27467 | 38074 ft | 442 kts | 322° |
| 2026-04-28 13:49 | -17.48279 | -46.31292 | 38076 ft | 442 kts | 322° |
| 2026-04-28 13:49 | -17.43328 | -46.35115 | 38076 ft | 442 kts | 322° |
| 2026-04-28 13:50 | -17.38385 | -46.38929 | 38081 ft | 442 kts | 322° |
| 2026-04-28 13:50 | -17.33431 | -46.42748 | 38073 ft | 442 kts | 322° |
| 2026-04-28 13:51 | -17.28511 | -46.46538 | 38084 ft | 442 kts | 322° |
| 2026-04-28 13:51 | -17.23548 | -46.50361 | 38083 ft | 442 kts | 322° |
| 2026-04-28 13:52 | -17.18596 | -46.54172 | 38075 ft | 443 kts | 322° |
| 2026-04-28 13:52 | -17.13630 | -46.57991 | 38079 ft | 443 kts | 322° |
| 2026-04-28 13:53 | -17.08851 | -46.62051 | 38083 ft | 442 kts | 318° |
| 2026-04-28 13:53 | -17.04197 | -46.66259 | 38084 ft | 442 kts | 318° |
| 2026-04-28 13:54 | -16.99541 | -46.70456 | 38085 ft | 442 kts | 318° |
| 2026-04-28 13:54 | -16.94861 | -46.74637 | 38085 ft | 443 kts | 318° |
| 2026-04-28 13:55 | -16.90172 | -46.78807 | 38083 ft | 443 kts | 319° |
| 2026-04-28 13:55 | -16.85512 | -46.82944 | 38086 ft | 442 kts | 319° |
| 2026-04-28 13:56 | -16.80821 | -46.87109 | 38087 ft | 442 kts | 319° |
| 2026-04-28 13:56 | -16.76131 | -46.91270 | 38089 ft | 443 kts | 319° |
| 2026-04-28 13:57 | -16.71424 | -46.95444 | 38088 ft | 443 kts | 319° |
| 2026-04-28 13:57 | -16.66730 | -46.99603 | 38090 ft | 443 kts | 319° |
| 2026-04-28 13:58 | -16.62060 | -47.03739 | 38087 ft | 443 kts | 319° |
| 2026-04-28 13:58 | -16.57366 | -47.07892 | 38089 ft | 443 kts | 319° |
| 2026-04-28 13:59 | -16.52665 | -47.12050 | 38088 ft | 442 kts | 319° |
| 2026-04-28 13:59 | -16.47967 | -47.16203 | 38093 ft | 442 kts | 319° |
| 2026-04-28 14:00 | -16.43282 | -47.20342 | 38087 ft | 442 kts | 319° |
| 2026-04-28 14:00 | -16.38604 | -47.24489 | 38087 ft | 441 kts | 316° |
| 2026-04-28 14:01 | -16.36387 | -47.26695 | 39490 ft | 442 kts | 315° |
| 2026-04-28 14:01 | -16.34196 | -47.28985 | 39212 ft | 451 kts | 314° |
| 2026-04-28 14:01 | -16.31988 | -47.31334 | 38992 ft | 456 kts | 314° |
| 2026-04-28 14:01 | -16.29764 | -47.33706 | 38750 ft | 458 kts | 314° |
| 2026-04-28 14:02 | -16.27537 | -47.36070 | 38512 ft | 458 kts | 314° |
| 2026-04-28 14:02 | -16.25297 | -47.38433 | 38280 ft | 457 kts | 314° |
| 2026-04-28 14:02 | -16.23068 | -47.40774 | 38159 ft | 454 kts | 314° |
| 2026-04-28 14:02 | -16.20854 | -47.43093 | 38074 ft | 449 kts | 314° |
| 2026-04-28 14:03 | -16.16510 | -47.47633 | 38004 ft | 441 kts | 314° |
| 2026-04-28 14:03 | -16.12150 | -47.52187 | 38010 ft | 447 kts | 314° |
| 2026-04-28 14:04 | -16.07737 | -47.56796 | 38008 ft | 453 kts | 314° |
| 2026-04-28 14:04 | -16.03266 | -47.61462 | 38009 ft | 456 kts | 314° |
| 2026-04-28 14:05 | -15.98767 | -47.66154 | 38006 ft | 459 kts | 314° |
| 2026-04-28 14:05 | -15.94271 | -47.70840 | 37986 ft | 455 kts | 314° |
| 2026-04-28 14:06 | -15.89840 | -47.75456 | 37992 ft | 447 kts | 314° |
| 2026-04-28 14:06 | -15.85449 | -47.80027 | 38004 ft | 447 kts | 314° |
| 2026-04-28 14:07 | -15.81084 | -47.84575 | 38003 ft | 447 kts | 314° |
| 2026-04-28 14:07 | -15.76697 | -47.89153 | 38001 ft | 447 kts | 314° |
| 2026-04-28 14:08 | -15.72303 | -47.93737 | 38004 ft | 448 kts | 314° |
| 2026-04-28 14:08 | -15.67903 | -47.98323 | 38005 ft | 449 kts | 314° |
| 2026-04-28 14:09 | -15.63485 | -48.02925 | 38001 ft | 450 kts | 314° |
| 2026-04-28 14:09 | -15.59057 | -48.07534 | 38003 ft | 451 kts | 314° |
| 2026-04-28 14:10 | -15.54624 | -48.12147 | 38002 ft | 452 kts | 314° |
| 2026-04-28 14:10 | -15.50180 | -48.16768 | 38004 ft | 453 kts | 314° |
| 2026-04-28 14:11 | -15.45655 | -48.21322 | 38000 ft | 453 kts | 317° |
| 2026-04-28 14:11 | -15.41021 | -48.25692 | 38000 ft | 453 kts | 317° |
| 2026-04-28 14:12 | -15.36350 | -48.30090 | 38001 ft | 453 kts | 317° |
| 2026-04-28 14:12 | -15.31709 | -48.34500 | 38002 ft | 453 kts | 317° |
| 2026-04-28 14:13 | -15.27074 | -48.38918 | 36608 ft | 449 kts | 317° |
| 2026-04-28 14:13 | -15.24796 | -48.41090 | 36852 ft | 442 kts | 317° |
| 2026-04-28 14:13 | -15.22547 | -48.43234 | 37081 ft | 437 kts | 317° |
| 2026-04-28 14:14 | -15.20315 | -48.45359 | 37329 ft | 435 kts | 317° |
| 2026-04-28 14:14 | -15.18096 | -48.47472 | 37578 ft | 432 kts | 317° |
| 2026-04-28 14:14 | -15.15878 | -48.49582 | 37795 ft | 431 kts | 317° |
| 2026-04-28 14:14 | -15.13671 | -48.51683 | 37906 ft | 432 kts | 317° |
| 2026-04-28 14:15 | -15.09225 | -48.55911 | 38035 ft | 436 kts | 317° |
| 2026-04-28 14:15 | -15.04723 | -48.60192 | 38043 ft | 442 kts | 317° |
| 2026-04-28 14:16 | -15.00160 | -48.64514 | 38041 ft | 447 kts | 317° |
| 2026-04-28 14:16 | -14.95525 | -48.68857 | 38040 ft | 451 kts | 317° |
| 2026-04-28 14:17 | -14.90904 | -48.73179 | 38018 ft | 448 kts | 317° |
| 2026-04-28 14:17 | -14.86319 | -48.77469 | 38017 ft | 441 kts | 317° |
| 2026-04-28 14:18 | -14.81789 | -48.81710 | 38020 ft | 437 kts | 317° |
| 2026-04-28 14:18 | -14.77296 | -48.85915 | 38027 ft | 435 kts | 317° |
| 2026-04-28 14:19 | -14.72799 | -48.90122 | 38034 ft | 438 kts | 317° |
| 2026-04-28 14:19 | -14.68244 | -48.94379 | 38035 ft | 445 kts | 317° |
| 2026-04-28 14:20 | -14.63628 | -48.98692 | 38020 ft | 449 kts | 317° |
| 2026-04-28 14:20 | -14.58990 | -49.03021 | 38020 ft | 449 kts | 317° |
| 2026-04-28 14:21 | -14.54377 | -49.07325 | 38008 ft | 444 kts | 317° |
| 2026-04-28 14:21 | -14.49827 | -49.11568 | 38005 ft | 437 kts | 317° |
| 2026-04-28 14:22 | -14.45368 | -49.15723 | 38016 ft | 433 kts | 317° |
| 2026-04-28 14:22 | -14.40891 | -49.19894 | 38025 ft | 435 kts | 317° |
| 2026-04-28 14:23 | -14.36392 | -49.24082 | 38018 ft | 436 kts | 317° |
| 2026-04-28 14:23 | -14.31868 | -49.28292 | 38017 ft | 440 kts | 317° |
| 2026-04-28 14:24 | -14.27301 | -49.32538 | 38013 ft | 444 kts | 317° |
| 2026-04-28 14:24 | -14.22686 | -49.36828 | 38019 ft | 448 kts | 317° |
| 2026-04-28 14:25 | -14.18051 | -49.41132 | 38011 ft | 449 kts | 317° |
| 2026-04-28 14:25 | -14.13422 | -49.45430 | 38002 ft | 446 kts | 317° |
| 2026-04-28 14:26 | -14.08832 | -49.49689 | 38000 ft | 441 kts | 317° |
| 2026-04-28 14:26 | -14.04294 | -49.53898 | 38000 ft | 438 kts | 317° |
| 2026-04-28 14:27 | -13.99775 | -49.58025 | 38001 ft | 435 kts | 319° |
| 2026-04-28 14:27 | -13.95189 | -49.62101 | 38009 ft | 436 kts | 319° |
| 2026-04-28 14:28 | -13.90565 | -49.66207 | 38011 ft | 442 kts | 319° |
| 2026-04-28 14:28 | -13.85891 | -49.70369 | 38014 ft | 447 kts | 319° |
| 2026-04-28 14:29 | -13.81173 | -49.74576 | 38011 ft | 450 kts | 319° |
| 2026-04-28 14:29 | -13.76442 | -49.78793 | 37998 ft | 449 kts | 319° |
| 2026-04-28 14:30 | -13.71744 | -49.82978 | 37998 ft | 445 kts | 319° |
| 2026-04-28 14:30 | -13.67094 | -49.87118 | 38002 ft | 439 kts | 319° |
| 2026-04-28 14:31 | -13.62480 | -49.91223 | 38001 ft | 437 kts | 319° |
| 2026-04-28 14:31 | -13.57883 | -49.95312 | 38006 ft | 436 kts | 319° |
| 2026-04-28 14:32 | -13.53316 | -49.99371 | 38015 ft | 438 kts | 319° |
| 2026-04-28 14:32 | -13.48674 | -50.03496 | 38018 ft | 444 kts | 319° |
| 2026-04-28 14:33 | -13.43971 | -50.07671 | 38016 ft | 449 kts | 319° |
| 2026-04-28 14:33 | -13.39229 | -50.11880 | 38003 ft | 451 kts | 319° |
| 2026-04-28 14:34 | -13.32944 | -50.17454 | 37995 ft | 444 kts | 319° |
| 2026-04-28 14:35 | -13.28290 | -50.21579 | 37998 ft | 440 kts | 319° |
| 2026-04-28 14:35 | -13.23663 | -50.25680 | 38005 ft | 439 kts | 319° |
| 2026-04-28 14:36 | -13.19052 | -50.29764 | 38008 ft | 438 kts | 319° |
| 2026-04-28 14:36 | -13.14432 | -50.33852 | 38017 ft | 438 kts | 319° |
| 2026-04-28 14:37 | -13.09802 | -50.37948 | 38012 ft | 440 kts | 319° |
| 2026-04-28 14:37 | -13.05184 | -50.42034 | 38012 ft | 442 kts | 319° |
| 2026-04-28 14:38 | -13.00514 | -50.46163 | 38013 ft | 444 kts | 319° |
| 2026-04-28 14:38 | -12.95816 | -50.50315 | 38013 ft | 447 kts | 319° |
| 2026-04-28 14:39 | -12.91095 | -50.54486 | 38011 ft | 448 kts | 319° |
| 2026-04-28 14:39 | -12.86361 | -50.58665 | 38012 ft | 449 kts | 319° |
| 2026-04-28 14:40 | -12.81625 | -50.62844 | 38008 ft | 448 kts | 319° |
| 2026-04-28 14:40 | -12.76933 | -50.66983 | 38005 ft | 448 kts | 319° |
| 2026-04-28 14:41 | -12.72218 | -50.71139 | 38005 ft | 446 kts | 319° |
| 2026-04-28 14:41 | -12.67523 | -50.75276 | 38014 ft | 445 kts | 319° |
| 2026-04-28 14:42 | -12.62837 | -50.79403 | 38002 ft | 443 kts | 319° |
| 2026-04-28 14:42 | -12.58175 | -50.83506 | 38005 ft | 441 kts | 319° |
| 2026-04-28 14:43 | -12.53524 | -50.87598 | 38000 ft | 440 kts | 320° |
| 2026-04-28 14:43 | -12.48892 | -50.91671 | 38012 ft | 439 kts | 320° |
| 2026-04-28 14:44 | -12.44267 | -50.95737 | 38005 ft | 439 kts | 320° |
| 2026-04-28 14:44 | -12.39634 | -50.99807 | 38008 ft | 439 kts | 320° |
| 2026-04-28 14:45 | -12.35028 | -51.03851 | 38019 ft | 440 kts | 320° |
| 2026-04-28 14:45 | -12.30382 | -51.07930 | 38011 ft | 441 kts | 320° |
| 2026-04-28 14:46 | -12.25717 | -51.12022 | 38013 ft | 443 kts | 320° |
| 2026-04-28 14:46 | -12.21032 | -51.16131 | 38007 ft | 444 kts | 320° |
| 2026-04-28 14:47 | -12.16325 | -51.20257 | 38017 ft | 446 kts | 320° |
| 2026-04-28 14:47 | -12.11595 | -51.24400 | 38011 ft | 448 kts | 320° |
| 2026-04-28 14:48 | -12.06866 | -51.28544 | 38016 ft | 448 kts | 320° |
| 2026-04-28 14:48 | -12.02121 | -51.32701 | 38020 ft | 449 kts | 320° |
| 2026-04-28 14:49 | -11.97375 | -51.36856 | 38009 ft | 450 kts | 320° |
| 2026-04-28 14:49 | -11.92653 | -51.40987 | 38020 ft | 450 kts | 320° |
| 2026-04-28 14:50 | -11.87900 | -51.45145 | 38016 ft | 449 kts | 320° |
| 2026-04-28 14:50 | -11.83158 | -51.49291 | 38009 ft | 449 kts | 320° |
| 2026-04-28 14:51 | -11.78417 | -51.53433 | 38017 ft | 448 kts | 320° |
| 2026-04-28 14:51 | -11.73680 | -51.57570 | 38019 ft | 448 kts | 320° |
| 2026-04-28 14:52 | -11.68944 | -51.61705 | 38012 ft | 448 kts | 320° |
| 2026-04-28 14:52 | -11.64208 | -51.65837 | 38016 ft | 448 kts | 320° |
| 2026-04-28 14:53 | -11.59500 | -51.69943 | 38017 ft | 448 kts | 320° |
| 2026-04-28 14:53 | -11.54762 | -51.74074 | 38014 ft | 448 kts | 320° |
| 2026-04-28 14:54 | -11.50020 | -51.78206 | 38021 ft | 448 kts | 320° |
| 2026-04-28 14:54 | -11.45269 | -51.82344 | 38015 ft | 449 kts | 320° |
| 2026-04-28 14:55 | -11.40516 | -51.86482 | 38009 ft | 450 kts | 320° |
| 2026-04-28 14:55 | -11.35783 | -51.90601 | 38010 ft | 450 kts | 320° |
| 2026-04-28 14:56 | -11.31017 | -51.94748 | 38015 ft | 451 kts | 320° |
| 2026-04-28 14:56 | -11.26231 | -51.98894 | 38009 ft | 452 kts | 321° |
| 2026-04-28 14:57 | -11.21391 | -52.02999 | 38015 ft | 452 kts | 321° |
| 2026-04-28 14:57 | -11.16542 | -52.07093 | 38013 ft | 453 kts | 321° |
| 2026-04-28 14:58 | -11.11688 | -52.11198 | 38014 ft | 453 kts | 321° |
| 2026-04-28 14:58 | -11.06840 | -52.15305 | 38009 ft | 453 kts | 321° |
| 2026-04-28 14:59 | -11.01997 | -52.19407 | 38016 ft | 453 kts | 321° |
| 2026-04-28 14:59 | -10.97185 | -52.23481 | 38011 ft | 453 kts | 321° |
| 2026-04-28 15:00 | -10.92349 | -52.27574 | 38013 ft | 452 kts | 321° |
| 2026-04-28 15:00 | -10.87509 | -52.31668 | 38019 ft | 452 kts | 321° |
| 2026-04-28 15:01 | -10.82678 | -52.35752 | 38017 ft | 451 kts | 321° |
| 2026-04-28 15:01 | -10.77853 | -52.39831 | 38012 ft | 451 kts | 321° |
| 2026-04-28 15:02 | -10.73021 | -52.43913 | 38018 ft | 451 kts | 321° |
| 2026-04-28 15:02 | -10.68194 | -52.47988 | 38022 ft | 451 kts | 321° |
| 2026-04-28 15:03 | -10.63372 | -52.52058 | 38001 ft | 451 kts | 321° |
| 2026-04-28 15:03 | -10.58573 | -52.56108 | 38004 ft | 451 kts | 321° |
| 2026-04-28 15:04 | -10.53748 | -52.60177 | 38010 ft | 451 kts | 321° |
| 2026-04-28 15:04 | -10.48907 | -52.64258 | 38005 ft | 452 kts | 321° |
| 2026-04-28 15:05 | -10.44064 | -52.68339 | 38000 ft | 452 kts | 321° |
| 2026-04-28 15:05 | -10.39217 | -52.72421 | 38006 ft | 452 kts | 321° |
| 2026-04-28 15:06 | -10.34368 | -52.76503 | 38005 ft | 453 kts | 321° |
| 2026-04-28 15:06 | -10.29513 | -52.80589 | 38001 ft | 453 kts | 321° |
| 2026-04-28 15:07 | -10.24652 | -52.84679 | 38012 ft | 454 kts | 321° |
| 2026-04-28 15:07 | -10.19780 | -52.88776 | 38001 ft | 454 kts | 321° |
| 2026-04-28 15:08 | -10.14943 | -52.92842 | 38010 ft | 454 kts | 321° |
| 2026-04-28 15:08 | -10.10079 | -52.96929 | 38011 ft | 454 kts | 321° |
| 2026-04-28 15:09 | -10.05211 | -53.01018 | 38020 ft | 454 kts | 321° |
| 2026-04-28 15:09 | -10.00346 | -53.05103 | 38015 ft | 454 kts | 321° |
| 2026-04-28 15:10 | -9.95480 | -53.09188 | 38019 ft | 454 kts | 321° |
| 2026-04-28 15:10 | -9.90616 | -53.13272 | 38019 ft | 454 kts | 320° |
| 2026-04-28 15:11 | -9.85912 | -53.17547 | 38021 ft | 454 kts | 317° |
| 2026-04-28 15:11 | -9.81298 | -53.21917 | 38022 ft | 454 kts | 317° |
| 2026-04-28 15:12 | -9.76667 | -53.26273 | 38026 ft | 454 kts | 318° |
| 2026-04-28 15:12 | -9.72023 | -53.30605 | 38024 ft | 454 kts | 318° |
| 2026-04-28 15:13 | -9.67398 | -53.34909 | 38026 ft | 454 kts | 318° |
| 2026-04-28 15:13 | -9.62748 | -53.39237 | 38029 ft | 454 kts | 318° |
| 2026-04-28 15:14 | -9.58109 | -53.43554 | 38033 ft | 454 kts | 318° |
| 2026-04-28 15:14 | -9.53451 | -53.47887 | 38029 ft | 454 kts | 318° |
| 2026-04-28 15:15 | -9.48791 | -53.52207 | 38037 ft | 454 kts | 318° |
| 2026-04-28 15:15 | -9.44120 | -53.56532 | 38038 ft | 454 kts | 318° |
| 2026-04-28 15:16 | -9.39462 | -53.60846 | 38039 ft | 454 kts | 318° |
| 2026-04-28 15:16 | -9.34796 | -53.65168 | 38038 ft | 454 kts | 318° |
| 2026-04-28 15:17 | -9.30135 | -53.69484 | 38044 ft | 454 kts | 318° |
| 2026-04-28 15:17 | -9.25478 | -53.73794 | 38037 ft | 454 kts | 318° |
| 2026-04-28 15:18 | -9.20849 | -53.78077 | 38045 ft | 454 kts | 318° |
| 2026-04-28 15:18 | -9.16183 | -53.82392 | 38047 ft | 454 kts | 318° |
| 2026-04-28 15:19 | -9.11528 | -53.86695 | 38041 ft | 454 kts | 318° |
| 2026-04-28 15:19 | -9.06868 | -53.91003 | 38046 ft | 453 kts | 318° |
| 2026-04-28 15:20 | -9.02213 | -53.95303 | 38047 ft | 453 kts | 318° |
| 2026-04-28 15:20 | -8.97551 | -53.99608 | 38050 ft | 453 kts | 318° |
| 2026-04-28 15:21 | -8.92888 | -54.03913 | 38048 ft | 453 kts | 318° |
| 2026-04-28 15:21 | -8.88225 | -54.08216 | 38051 ft | 453 kts | 318° |
| 2026-04-28 15:22 | -8.83571 | -54.12509 | 38048 ft | 454 kts | 318° |
| 2026-04-28 15:22 | -8.79692 | -54.16086 | 38047 ft | 454 kts | 318° |
| 2026-04-28 15:23 | -8.75024 | -54.20390 | 38045 ft | 454 kts | 318° |
| 2026-04-28 15:23 | -8.70356 | -54.24691 | 38047 ft | 454 kts | 319° |
| 2026-04-28 15:24 | -8.65683 | -54.28996 | 38046 ft | 454 kts | 319° |
| 2026-04-28 15:24 | -8.61012 | -54.33298 | 38049 ft | 455 kts | 319° |
| 2026-04-28 15:25 | -8.56331 | -54.37607 | 38048 ft | 455 kts | 319° |
| 2026-04-28 15:25 | -8.51682 | -54.41885 | 38046 ft | 455 kts | 318° |
| 2026-04-28 15:26 | -8.47004 | -54.46189 | 38043 ft | 455 kts | 318° |
| 2026-04-28 15:26 | -8.42330 | -54.50487 | 38044 ft | 455 kts | 318° |
| 2026-04-28 15:27 | -8.37646 | -54.54793 | 38043 ft | 455 kts | 319° |
| 2026-04-28 15:27 | -8.32961 | -54.59099 | 38037 ft | 455 kts | 319° |
| 2026-04-28 15:28 | -8.28277 | -54.63402 | 38043 ft | 455 kts | 319° |
| 2026-04-28 15:28 | -8.23621 | -54.67678 | 38039 ft | 455 kts | 318° |
| 2026-04-28 15:29 | -8.18939 | -54.71976 | 38039 ft | 455 kts | 318° |
| 2026-04-28 15:29 | -8.14252 | -54.76278 | 38041 ft | 455 kts | 318° |
| 2026-04-28 15:30 | -8.09564 | -54.80579 | 38038 ft | 455 kts | 318° |
| 2026-04-28 15:30 | -8.04867 | -54.84887 | 38046 ft | 456 kts | 318° |
| 2026-04-28 15:31 | -8.00205 | -54.89162 | 38034 ft | 456 kts | 318° |
| 2026-04-28 15:31 | -7.95476 | -54.93496 | 38037 ft | 456 kts | 318° |
| 2026-04-28 15:32 | -7.90774 | -54.97804 | 38039 ft | 456 kts | 318° |
| 2026-04-28 15:32 | -7.86107 | -55.02079 | 38035 ft | 456 kts | 318° |
| 2026-04-28 15:33 | -7.81407 | -55.06383 | 38033 ft | 456 kts | 318° |
| 2026-04-28 15:33 | -7.76705 | -55.10688 | 38033 ft | 456 kts | 318° |
| 2026-04-28 15:34 | -7.71996 | -55.14998 | 38032 ft | 457 kts | 318° |
| 2026-04-28 15:34 | -7.67288 | -55.19305 | 38029 ft | 457 kts | 318° |
| 2026-04-28 15:35 | -7.62568 | -55.23621 | 38032 ft | 458 kts | 318° |
| 2026-04-28 15:35 | -7.55487 | -55.30095 | 38024 ft | 458 kts | 318° |
| 2026-04-28 15:36 | -7.50767 | -55.34409 | 38027 ft | 458 kts | 318° |
| 2026-04-28 15:36 | -7.46069 | -55.38702 | 38028 ft | 458 kts | 318° |
| 2026-04-28 15:37 | -7.41347 | -55.43015 | 38025 ft | 458 kts | 318° |
| 2026-04-28 15:37 | -7.36627 | -55.47342 | 38024 ft | 458 kts | 318° |
| 2026-04-28 15:38 | -7.31923 | -55.51669 | 38015 ft | 458 kts | 318° |
| 2026-04-28 15:38 | -7.27209 | -55.55987 | 38025 ft | 458 kts | 319° |
| 2026-04-28 15:39 | -7.22376 | -55.60186 | 38027 ft | 458 kts | 320° |
| 2026-04-28 15:39 | -7.17507 | -55.64331 | 38020 ft | 458 kts | 320° |
| 2026-04-28 15:40 | -7.12648 | -55.68489 | 38022 ft | 458 kts | 320° |
| 2026-04-28 15:40 | -7.07801 | -55.72656 | 38018 ft | 459 kts | 320° |
| 2026-04-28 15:41 | -7.02958 | -55.76828 | 38020 ft | 458 kts | 320° |
| 2026-04-28 15:41 | -6.98105 | -55.81007 | 38018 ft | 459 kts | 320° |
| 2026-04-28 15:42 | -6.93256 | -55.85182 | 38019 ft | 459 kts | 320° |
| 2026-04-28 15:42 | -6.88433 | -55.89332 | 38015 ft | 459 kts | 320° |
| 2026-04-28 15:43 | -6.83552 | -55.93530 | 38018 ft | 459 kts | 320° |
| 2026-04-28 15:43 | -6.78733 | -55.97674 | 38014 ft | 459 kts | 320° |
| 2026-04-28 15:44 | -6.73881 | -56.01846 | 38014 ft | 459 kts | 320° |
| 2026-04-28 15:44 | -6.69033 | -56.06013 | 38018 ft | 458 kts | 320° |
| 2026-04-28 15:45 | -6.64178 | -56.10185 | 38011 ft | 458 kts | 320° |
| 2026-04-28 15:45 | -6.59327 | -56.14352 | 38016 ft | 458 kts | 320° |
| 2026-04-28 15:46 | -6.54509 | -56.18490 | 38010 ft | 458 kts | 320° |
| 2026-04-28 15:46 | -6.49662 | -56.22652 | 38014 ft | 457 kts | 320° |
| 2026-04-28 15:47 | -6.44828 | -56.26801 | 38009 ft | 457 kts | 320° |
| 2026-04-28 15:47 | -6.39986 | -56.30956 | 38012 ft | 457 kts | 320° |
| 2026-04-28 15:48 | -6.35152 | -56.35103 | 38008 ft | 457 kts | 320° |
| 2026-04-28 15:48 | -6.30318 | -56.39250 | 38010 ft | 457 kts | 320° |
| 2026-04-28 15:49 | -6.25487 | -56.43392 | 38013 ft | 456 kts | 320° |
| 2026-04-28 15:49 | -6.20687 | -56.47507 | 38009 ft | 456 kts | 320° |
| 2026-04-28 15:50 | -6.15867 | -56.51638 | 38009 ft | 456 kts | 320° |
| 2026-04-28 15:50 | -6.11033 | -56.55780 | 38009 ft | 455 kts | 320° |
| 2026-04-28 15:51 | -6.06214 | -56.59908 | 38007 ft | 455 kts | 320° |
| 2026-04-28 15:51 | -6.01388 | -56.64042 | 38006 ft | 454 kts | 320° |
| 2026-04-28 15:52 | -5.96610 | -56.68133 | 38003 ft | 454 kts | 320° |
| 2026-04-28 15:52 | -5.91797 | -56.72254 | 38001 ft | 453 kts | 320° |
| 2026-04-28 15:53 | -5.86993 | -56.76366 | 38002 ft | 453 kts | 320° |
| 2026-04-28 15:53 | -5.82208 | -56.80461 | 38000 ft | 452 kts | 320° |
| 2026-04-28 15:54 | -5.77419 | -56.84560 | 37998 ft | 452 kts | 319° |
| 2026-04-28 15:54 | -5.73357 | -56.89318 | 37993 ft | 451 kts | 300° |
| 2026-04-28 15:55 | -5.70395 | -56.94867 | 37998 ft | 450 kts | 297° |
| 2026-04-28 15:55 | -5.67509 | -57.00455 | 37997 ft | 451 kts | 297° |
| 2026-04-28 15:56 | -5.64608 | -57.06002 | 37996 ft | 451 kts | 297° |
| 2026-04-28 15:56 | -5.61666 | -57.11567 | 37997 ft | 452 kts | 297° |
| 2026-04-28 15:57 | -5.58705 | -57.17146 | 37999 ft | 453 kts | 297° |
| 2026-04-28 15:57 | -5.55739 | -57.22730 | 38000 ft | 453 kts | 297° |
| 2026-04-28 15:58 | -5.52768 | -57.28326 | 37998 ft | 454 kts | 297° |
| 2026-04-28 15:58 | -5.49800 | -57.33915 | 37998 ft | 454 kts | 297° |
| 2026-04-28 15:59 | -5.47329 | -57.38567 | 37994 ft | 454 kts | 297° |
| 2026-04-28 15:59 | -5.43850 | -57.45115 | 37996 ft | 454 kts | 297° |
| 2026-04-28 16:00 | -5.40875 | -57.50712 | 37997 ft | 454 kts | 297° |
| 2026-04-28 16:00 | -5.37896 | -57.56315 | 37999 ft | 454 kts | 297° |
| 2026-04-28 16:01 | -5.34936 | -57.61881 | 37996 ft | 454 kts | 297° |
| 2026-04-28 16:01 | -5.31957 | -57.67482 | 37995 ft | 454 kts | 298° |
| 2026-04-28 16:02 | -5.28979 | -57.73078 | 37995 ft | 454 kts | 298° |
| 2026-04-28 16:02 | -5.26001 | -57.78674 | 37994 ft | 454 kts | 298° |
| 2026-04-28 16:03 | -5.24511 | -57.81474 | 39464 ft | 455 kts | 297° |
| 2026-04-28 16:03 | -5.23021 | -57.84273 | 39179 ft | 453 kts | 297° |
| 2026-04-28 16:03 | -5.21544 | -57.87047 | 38935 ft | 449 kts | 297° |
| 2026-04-28 16:03 | -5.20077 | -57.89800 | 38683 ft | 445 kts | 297° |
| 2026-04-28 16:04 | -5.18621 | -57.92535 | 38438 ft | 444 kts | 297° |
| 2026-04-28 16:04 | -5.17165 | -57.95267 | 38234 ft | 442 kts | 297° |
| 2026-04-28 16:04 | -5.15742 | -57.97939 | 38127 ft | 439 kts | 297° |
| 2026-04-28 16:04 | -5.14769 | -57.99766 | 38088 ft | 439 kts | 297° |
| 2026-04-28 16:05 | -5.11390 | -58.06108 | 38008 ft | 448 kts | 297° |
| 2026-04-28 16:05 | -5.08442 | -58.11639 | 38002 ft | 451 kts | 298° |
| 2026-04-28 16:06 | -5.05478 | -58.17198 | 38001 ft | 453 kts | 298° |
| 2026-04-28 16:06 | -5.02504 | -58.22775 | 38000 ft | 453 kts | 298° |
| 2026-04-28 16:07 | -4.99533 | -58.28343 | 37999 ft | 453 kts | 298° |
| 2026-04-28 16:08 | -4.95085 | -58.36681 | 37998 ft | 450 kts | 298° |
| 2026-04-28 16:08 | -4.92131 | -58.42215 | 37998 ft | 449 kts | 298° |
| 2026-04-28 16:09 | -4.87743 | -58.50434 | 37999 ft | 446 kts | 298° |
| 2026-04-28 16:10 | -4.83354 | -58.58650 | 38000 ft | 444 kts | 298° |
| 2026-04-28 16:10 | -4.79472 | -58.65917 | 38002 ft | 444 kts | 298° |
| 2026-04-28 16:11 | -4.73643 | -58.76823 | 38003 ft | 444 kts | 298° |
| 2026-04-28 16:12 | -4.70692 | -58.82342 | 37158 ft | 450 kts | 298° |
| 2026-04-28 16:12 | -4.69221 | -58.85094 | 36690 ft | 446 kts | 298° |
| 2026-04-28 16:13 | -4.66334 | -58.90490 | 35886 ft | 438 kts | 298° |
| 2026-04-28 16:13 | -4.64899 | -58.93173 | 35461 ft | 434 kts | 298° |
| 2026-04-28 16:13 | -4.62066 | -58.98467 | 34624 ft | 428 kts | 298° |
| 2026-04-28 16:14 | -4.59271 | -59.03690 | 33800 ft | 422 kts | 298° |
| 2026-04-28 16:14 | -4.56520 | -59.08830 | 32985 ft | 415 kts | 298° |
| 2026-04-28 16:15 | -4.53808 | -59.13895 | 32197 ft | 409 kts | 298° |
| 2026-04-28 16:15 | -4.52468 | -59.16398 | 31807 ft | 407 kts | 298° |
| 2026-04-28 16:15 | -4.51133 | -59.18891 | 31423 ft | 404 kts | 298° |
| 2026-04-28 16:16 | -4.48497 | -59.23814 | 30653 ft | 398 kts | 298° |
| 2026-04-28 16:16 | -4.47194 | -59.26245 | 30277 ft | 395 kts | 298° |
| 2026-04-28 16:17 | -4.44610 | -59.31069 | 29523 ft | 389 kts | 298° |
| 2026-04-28 16:17 | -4.43334 | -59.33451 | 29139 ft | 387 kts | 298° |
| 2026-04-28 16:17 | -4.42068 | -59.35813 | 28753 ft | 384 kts | 298° |
| 2026-04-28 16:17 | -4.40807 | -59.38165 | 28373 ft | 381 kts | 298° |
| 2026-04-28 16:18 | -4.39560 | -59.40493 | 27989 ft | 378 kts | 298° |
| 2026-04-28 16:18 | -4.38318 | -59.42809 | 27614 ft | 375 kts | 298° |
| 2026-04-28 16:18 | -4.37090 | -59.45100 | 27243 ft | 373 kts | 298° |
| 2026-04-28 16:18 | -4.35864 | -59.47388 | 26872 ft | 370 kts | 298° |
| 2026-04-28 16:19 | -4.34651 | -59.49650 | 26500 ft | 368 kts | 298° |
| 2026-04-28 16:19 | -4.33460 | -59.51871 | 26138 ft | 365 kts | 298° |
| 2026-04-28 16:19 | -4.32261 | -59.54107 | 25773 ft | 363 kts | 298° |
| 2026-04-28 16:19 | -4.31072 | -59.56323 | 25416 ft | 360 kts | 298° |
| 2026-04-28 16:20 | -4.29890 | -59.58528 | 25048 ft | 358 kts | 298° |
| 2026-04-28 16:20 | -4.28712 | -59.60724 | 24689 ft | 356 kts | 298° |
| 2026-04-28 16:20 | -4.27546 | -59.62897 | 24332 ft | 353 kts | 298° |
| 2026-04-28 16:20 | -4.26385 | -59.65062 | 23977 ft | 351 kts | 298° |
| 2026-04-28 16:21 | -4.25232 | -59.67212 | 23623 ft | 349 kts | 298° |
| 2026-04-28 16:21 | -4.24085 | -59.69349 | 23256 ft | 347 kts | 298° |
| 2026-04-28 16:21 | -4.22949 | -59.71467 | 22923 ft | 345 kts | 298° |
| 2026-04-28 16:21 | -4.21816 | -59.73577 | 22572 ft | 342 kts | 298° |
| 2026-04-28 16:22 | -4.20689 | -59.75679 | 22225 ft | 340 kts | 298° |
| 2026-04-28 16:22 | -4.19573 | -59.77758 | 21880 ft | 338 kts | 298° |
| 2026-04-28 16:22 | -4.18462 | -59.79828 | 21537 ft | 336 kts | 298° |
| 2026-04-28 16:22 | -4.17372 | -59.81858 | 21200 ft | 334 kts | 298° |
| 2026-04-28 16:23 | -4.16275 | -59.83903 | 20864 ft | 332 kts | 298° |
| 2026-04-28 16:23 | -4.15185 | -59.85934 | 20522 ft | 330 kts | 298° |
| 2026-04-28 16:23 | -4.14096 | -59.87963 | 20186 ft | 329 kts | 298° |
| 2026-04-28 16:23 | -4.13015 | -59.89975 | 19841 ft | 327 kts | 298° |
| 2026-04-28 16:24 | -4.11941 | -59.91976 | 19503 ft | 325 kts | 298° |
| 2026-04-28 16:24 | -4.10848 | -59.93945 | 19152 ft | 324 kts | 304° |
| 2026-04-28 16:24 | -4.09254 | -59.95527 | 18803 ft | 323 kts | 326° |
| 2026-04-28 16:24 | -4.07213 | -59.96436 | 18491 ft | 321 kts | 341° |
| 2026-04-28 16:25 | -4.05089 | -59.97090 | 18145 ft | 320 kts | 343° |
| 2026-04-28 16:25 | -4.02957 | -59.97707 | 17800 ft | 318 kts | 343° |
| 2026-04-28 16:25 | -4.00826 | -59.98318 | 17462 ft | 317 kts | 343° |
| 2026-04-28 16:25 | -3.98715 | -59.98929 | 17130 ft | 316 kts | 343° |
| 2026-04-28 16:26 | -3.96612 | -59.99544 | 16799 ft | 314 kts | 343° |
| 2026-04-28 16:26 | -3.94541 | -60.00155 | 16474 ft | 313 kts | 343° |
| 2026-04-28 16:26 | -3.92432 | -60.00781 | 16140 ft | 311 kts | 343° |
| 2026-04-28 16:26 | -3.90388 | -60.01390 | 15810 ft | 310 kts | 343° |
| 2026-04-28 16:27 | -3.88322 | -60.02007 | 15486 ft | 309 kts | 343° |
| 2026-04-28 16:27 | -3.86268 | -60.02621 | 15156 ft | 307 kts | 343° |
| 2026-04-28 16:27 | -3.82194 | -60.03840 | 14494 ft | 305 kts | 343° |
| 2026-04-28 16:28 | -3.80159 | -60.04449 | 14177 ft | 303 kts | 343° |
| 2026-04-28 16:28 | -3.78144 | -60.05052 | 13851 ft | 302 kts | 343° |
| 2026-04-28 16:28 | -3.76127 | -60.05656 | 13527 ft | 301 kts | 343° |
| 2026-04-28 16:28 | -3.74133 | -60.06253 | 13209 ft | 300 kts | 343° |
| 2026-04-28 16:29 | -3.70150 | -60.07445 | 12556 ft | 297 kts | 343° |
| 2026-04-28 16:29 | -3.66206 | -60.08626 | 11914 ft | 295 kts | 343° |
| 2026-04-28 16:30 | -3.64250 | -60.09211 | 11591 ft | 293 kts | 343° |
| 2026-04-28 16:30 | -3.62293 | -60.09797 | 11271 ft | 292 kts | 343° |
| 2026-04-28 16:30 | -3.60349 | -60.10379 | 10952 ft | 291 kts | 343° |
| 2026-04-28 16:30 | -3.58441 | -60.10950 | 10637 ft | 290 kts | 343° |
| 2026-04-28 16:31 | -3.56507 | -60.11529 | 10319 ft | 289 kts | 343° |
| 2026-04-28 16:31 | -3.54599 | -60.12099 | 10165 ft | 282 kts | 343° |
| 2026-04-28 16:31 | -3.52746 | -60.12653 | 10026 ft | 275 kts | 343° |
| 2026-04-28 16:31 | -3.50915 | -60.13201 | 9722 ft | 274 kts | 343° |
| 2026-04-28 16:32 | -3.49091 | -60.13746 | 9443 ft | 273 kts | 343° |
| 2026-04-28 16:32 | -3.45470 | -60.14829 | 8870 ft | 271 kts | 343° |
| 2026-04-28 16:32 | -3.43668 | -60.15368 | 8585 ft | 270 kts | 343° |
| 2026-04-28 16:33 | -3.41875 | -60.15904 | 8304 ft | 269 kts | 343° |
| 2026-04-28 16:33 | -3.40662 | -60.16267 | 8099 ft | 269 kts | 343° |
| 2026-04-28 16:33 | -3.38286 | -60.16977 | 7728 ft | 268 kts | 343° |
| 2026-04-28 16:33 | -3.36503 | -60.17511 | 7448 ft | 267 kts | 343° |
| 2026-04-28 16:34 | -3.34729 | -60.18041 | 7170 ft | 266 kts | 343° |
| 2026-04-28 16:34 | -3.32954 | -60.18572 | 6877 ft | 266 kts | 343° |
| 2026-04-28 16:34 | -3.31182 | -60.19102 | 6594 ft | 266 kts | 343° |
| 2026-04-28 16:34 | -3.29413 | -60.19631 | 6321 ft | 266 kts | 343° |
| 2026-04-28 16:35 | -3.27631 | -60.20164 | 6007 ft | 267 kts | 343° |
| 2026-04-28 16:35 | -3.25859 | -60.20694 | 5726 ft | 266 kts | 343° |
| 2026-04-28 16:35 | -3.24087 | -60.21196 | 5440 ft | 265 kts | 347° |
| 2026-04-28 16:35 | -3.22271 | -60.21525 | 5174 ft | 263 kts | 351° |
| 2026-04-28 16:36 | -3.20461 | -60.21798 | 4891 ft | 263 kts | 351° |
| 2026-04-28 16:36 | -3.18684 | -60.22078 | 4625 ft | 261 kts | 350° |
| 2026-04-28 16:36 | -3.16869 | -60.22373 | 4367 ft | 260 kts | 350° |
| 2026-04-28 16:36 | -3.15104 | -60.22663 | 4083 ft | 261 kts | 350° |
| 2026-04-28 16:37 | -3.13341 | -60.22918 | 3921 ft | 251 kts | 356° |
| 2026-04-28 16:37 | -3.11633 | -60.22936 | 3736 ft | 240 kts | 1° |
| 2026-04-28 16:37 | -3.09997 | -60.22903 | 3550 ft | 230 kts | 0° |
| 2026-04-28 16:38 | -3.06948 | -60.22869 | 3284 ft | 206 kts | 360° |
| 2026-04-28 16:38 | -3.05556 | -60.22740 | 3077 ft | 198 kts | 20° |
| 2026-04-28 16:38 | -3.04469 | -60.21977 | 2943 ft | 188 kts | 52° |
| 2026-04-28 16:38 | -3.04067 | -60.20788 | 2793 ft | 180 kts | 88° |
| 2026-04-28 16:39 | -3.03954 | -60.19542 | 2636 ft | 178 kts | 84° |
| 2026-04-28 16:39 | -3.03856 | -60.18321 | 2456 ft | 174 kts | 88° |
| 2026-04-28 16:39 | -3.03835 | -60.17134 | 2328 ft | 166 kts | 90° |
| 2026-04-28 16:39 | -3.03835 | -60.16022 | 2189 ft | 157 kts | 91° |
| 2026-04-28 16:40 | -3.03838 | -60.14917 | 1987 ft | 160 kts | 91° |
| 2026-04-28 16:40 | -3.03840 | -60.13821 | 1761 ft | 155 kts | 91° |
| 2026-04-28 16:40 | -3.03842 | -60.12752 | 1534 ft | 152 kts | 91° |
| 2026-04-28 16:40 | -3.03835 | -60.11715 | 1362 ft | 152 kts | 91° |
| 2026-04-28 16:41 | -3.03848 | -60.10652 | 1184 ft | 154 kts | 91° |
| 2026-04-28 16:41 | -3.03849 | -60.09583 | 962 ft | 152 kts | 91° |
| 2026-04-28 16:41 | -3.03852 | -60.08525 | 763 ft | 152 kts | 91° |
| 2026-04-28 16:41 | -3.03853 | -60.07467 | 579 ft | 152 kts | 91° |
| 2026-04-28 16:42 | -3.03856 | -60.06410 | 360 ft | 151 kts | 91° |
| 2026-04-28 16:42 | -3.03860 | -60.05390 | 268 ft | 130 kts | 90° |
| 2026-04-28 16:42 | -3.03862 | -60.04702 | 270 ft | 68 kts | 90° |
| 2026-04-28 16:42 | -3.03861 | -60.04416 | 270 ft | 28 kts | 89° |
| 2026-04-28 16:43 | -3.03862 | -60.04229 | 270 ft | 26 kts | 90° |
| 2026-04-28 16:43 | -3.03862 | -60.04055 | 270 ft | 24 kts | 90° |
| 2026-04-28 16:43 | -3.03861 | -60.03892 | 269 ft | 24 kts | 89° |
| 2026-04-28 16:43 | -3.03788 | -60.03770 | 269 ft | 23 kts | 8° |
| 2026-04-28 16:44 | -3.03676 | -60.03873 | 269 ft | 26 kts | 285° |
| 2026-04-28 16:44 | -3.03626 | -60.04054 | 269 ft | 27 kts | 285° |
| 2026-04-28 16:44 | -3.03573 | -60.04230 | 269 ft | 26 kts | 297° |
| 2026-04-28 16:44 | -3.03456 | -60.04350 | 269 ft | 24 kts | 332° |
| 2026-04-28 16:45 | -3.03333 | -60.04425 | 269 ft | 20 kts | 276° |
| 2026-04-28 16:45 | -3.03344 | -60.04558 | 269 ft | 18 kts | 298° |
| 2026-04-28 16:45 | -3.03276 | -60.04581 | 269 ft | 2 kts | 358° |
| 2026-04-28 16:45 | -3.03272 | -60.04581 | 269 ft | 0 kts | 358° |